createdAt,value
2022-07-29T00:00:00.291Z,19.10
2022-07-29T00:02:28.276Z,19.10
2022-07-29T00:04:55.589Z,19.10
2022-07-29T00:07:22.807Z,19.10
2022-07-29T00:09:50.926Z,19.10
2022-07-29T00:12:25.549Z,19.00
2022-07-29T00:14:54.704Z,19.00
2022-07-29T00:17:22.380Z,19.00
2022-07-29T00:19:49.603Z,18.90
2022-07-29T00:22:16.916Z,18.80
2022-07-29T00:24:44.135Z,18.80
2022-07-29T00:27:11.358Z,18.80
2022-07-29T00:29:38.584Z,18.80
2022-07-29T00:32:06.137Z,18.80
2022-07-29T00:34:51.917Z,18.80
2022-07-29T00:37:19.141Z,18.80
2022-07-29T00:39:46.390Z,18.90
2022-07-29T00:42:13.661Z,18.90
2022-07-29T00:44:41.416Z,18.90
2022-07-29T00:47:09.527Z,18.90
2022-07-29T00:49:37.139Z,18.90
2022-07-29T00:52:08.058Z,19.00
2022-07-29T00:54:35.715Z,19.00
2022-07-29T00:57:11.816Z,18.90
2022-07-29T00:59:39.093Z,19.00
2022-07-29T01:02:06.461Z,19.10
2022-07-29T01:04:33.767Z,19.00
2022-07-29T01:07:04.321Z,19.10
2022-07-29T01:09:45.484Z,19.20
2022-07-29T01:12:32.741Z,19.20
2022-07-29T01:15:00.437Z,19.30
2022-07-29T01:17:37.842Z,19.30
2022-07-29T01:20:13.552Z,19.40
2022-07-29T01:22:59.581Z,19.40
2022-07-29T01:25:56.305Z,19.30
2022-07-29T01:28:43.699Z,19.30
2022-07-29T01:31:13.424Z,19.30
2022-07-29T01:33:58.876Z,19.30
2022-07-29T01:36:35.114Z,19.30
2022-07-29T01:39:17.958Z,19.30
2022-07-29T01:41:56.990Z,19.40
2022-07-29T01:44:52.426Z,19.40
2022-07-29T01:47:21.925Z,19.40
2022-07-29T01:49:55.547Z,19.40
2022-07-29T01:52:27.186Z,19.30
2022-07-29T01:54:56.867Z,19.30
2022-07-29T01:57:28.696Z,19.40
2022-07-29T01:59:57.127Z,19.40
2022-07-29T02:02:24.367Z,19.30
2022-07-29T02:04:51.685Z,19.30
2022-07-29T02:07:20.579Z,19.30
2022-07-29T02:09:48.572Z,19.30
2022-07-29T02:12:16.473Z,19.30
2022-07-29T02:14:46.710Z,19.30
2022-07-29T02:17:14.192Z,19.30
2022-07-29T02:19:41.409Z,19.30
2022-07-29T02:22:08.651Z,19.40
2022-07-29T02:24:37.030Z,19.30
2022-07-29T02:27:04.506Z,19.20
2022-07-29T02:29:31.776Z,19.20
2022-07-29T02:31:59.210Z,19.10
2022-07-29T02:34:26.433Z,19.10
2022-07-29T02:36:53.741Z,19.10
2022-07-29T02:39:20.979Z,19.10
2022-07-29T02:41:49.587Z,19.00
2022-07-29T02:44:21.871Z,18.90
2022-07-29T02:46:53.277Z,18.90
2022-07-29T02:49:35.548Z,18.90
2022-07-29T02:52:19.304Z,18.90
2022-07-29T02:55:03.147Z,18.90
2022-07-29T02:57:34.271Z,18.80
2022-07-29T03:00:05.701Z,18.80
2022-07-29T03:02:41.238Z,18.80
2022-07-29T03:05:10.451Z,18.80
2022-07-29T03:07:38.043Z,18.80
2022-07-29T03:10:05.950Z,18.70
2022-07-29T03:12:41.909Z,18.70
2022-07-29T03:15:09.548Z,18.70
2022-07-29T03:17:37.372Z,18.80
2022-07-29T03:20:05.167Z,18.70
2022-07-29T03:22:32.399Z,18.60
2022-07-29T03:24:59.619Z,18.60
2022-07-29T03:27:26.837Z,18.60
2022-07-29T03:29:54.082Z,18.60
2022-07-29T03:32:25.092Z,18.70
2022-07-29T03:34:52.757Z,18.70
2022-07-29T03:37:20.004Z,18.50
2022-07-29T03:39:47.300Z,18.60
2022-07-29T03:42:15.712Z,18.30
2022-07-29T03:44:44.017Z,18.20
2022-07-29T03:47:11.476Z,18.10
2022-07-29T03:49:39.014Z,18.00
2022-07-29T03:52:06.781Z,18.00
2022-07-29T03:54:34.096Z,17.90
2022-07-29T03:57:02.369Z,17.90
2022-07-29T03:59:29.587Z,17.90
2022-07-29T04:01:56.933Z,18.00
2022-07-29T04:04:24.246Z,18.00
2022-07-29T04:06:54.570Z,18.00
2022-07-29T04:09:21.983Z,18.00
2022-07-29T04:12:01.705Z,18.00
2022-07-29T04:14:32.812Z,18.10
2022-07-29T04:17:00.915Z,18.10
2022-07-29T04:19:28.245Z,18.20
2022-07-29T04:21:55.485Z,18.20
2022-07-29T04:24:22.744Z,18.20
2022-07-29T04:26:49.988Z,18.30
2022-07-29T04:29:17.230Z,18.30
2022-07-29T04:31:44.797Z,18.40
2022-07-29T04:34:12.355Z,18.50
2022-07-29T04:36:39.635Z,18.60
2022-07-29T04:39:06.881Z,18.70
2022-07-29T04:41:34.546Z,18.80
2022-07-29T04:44:06.901Z,18.80
2022-07-29T04:46:34.877Z,18.90
2022-07-29T04:49:03.325Z,19.00
2022-07-29T04:51:30.645Z,19.10
2022-07-29T04:53:57.915Z,19.20
2022-07-29T04:56:25.136Z,19.20
2022-07-29T04:58:52.394Z,19.30
2022-07-29T05:01:19.960Z,19.30
2022-07-29T05:03:47.359Z,19.40
2022-07-29T05:06:14.604Z,19.50
2022-07-29T05:08:42.078Z,19.50
2022-07-29T05:11:12.057Z,19.60
2022-07-29T05:13:45.302Z,19.60
2022-07-29T05:16:14.293Z,19.50
2022-07-29T05:18:42.022Z,19.40
2022-07-29T05:21:09.307Z,19.30
2022-07-29T05:23:36.616Z,19.30
2022-07-29T05:26:03.868Z,19.30
2022-07-29T05:28:35.028Z,19.20
2022-07-29T05:31:02.754Z,19.20
2022-07-29T05:33:35.807Z,19.10
2022-07-29T05:36:08.199Z,19.10
2022-07-29T05:38:36.461Z,19.10
2022-07-29T05:41:04.172Z,19.20
2022-07-29T05:43:31.405Z,19.30
2022-07-29T05:45:58.827Z,19.30
2022-07-29T05:48:26.308Z,19.30
2022-07-29T05:50:53.639Z,19.20
2022-07-29T05:53:21.545Z,19.20
2022-07-29T05:55:49.451Z,19.30
2022-07-29T05:58:16.866Z,19.40
2022-07-29T06:00:44.173Z,19.50
2022-07-29T06:03:11.577Z,19.40
2022-07-29T06:05:38.830Z,19.50
2022-07-29T06:08:09.208Z,19.60
2022-07-29T06:10:36.502Z,19.90
2022-07-29T06:13:03.953Z,20.20
2022-07-29T06:15:31.178Z,20.40
2022-07-29T06:18:00.354Z,20.60
2022-07-29T06:20:32.119Z,20.70
2022-07-29T06:23:00.168Z,20.80
2022-07-29T06:25:30.235Z,20.90
2022-07-29T06:27:58.298Z,20.90
2022-07-29T06:30:25.584Z,20.70
2022-07-29T06:32:52.960Z,20.80
2022-07-29T06:35:41.549Z,21.00
2022-07-29T06:38:12.008Z,21.30
2022-07-29T06:41:06.936Z,21.40
2022-07-29T06:43:35.245Z,21.50
2022-07-29T06:46:03.718Z,21.60
2022-07-29T06:48:31.099Z,21.70
2022-07-29T06:50:58.455Z,21.70
2022-07-29T06:53:25.786Z,21.60
2022-07-29T06:55:53.013Z,21.70
2022-07-29T06:58:21.455Z,21.80
2022-07-29T07:00:56.788Z,21.70
2022-07-29T07:03:24.084Z,21.60
2022-07-29T07:05:52.413Z,21.80
2022-07-29T07:08:20.407Z,21.90
2022-07-29T07:10:47.709Z,21.80
2022-07-29T07:13:15.773Z,21.80
2022-07-29T07:15:42.983Z,21.90
2022-07-29T07:18:10.270Z,22.00
2022-07-29T07:20:37.695Z,22.30
2022-07-29T07:23:05.611Z,22.30
2022-07-29T07:25:32.843Z,22.30
2022-07-29T07:28:00.091Z,22.30
2022-07-29T07:30:28.146Z,22.50
2022-07-29T07:32:56.244Z,22.60
2022-07-29T07:35:23.495Z,22.40
2022-07-29T07:37:50.767Z,22.50
2022-07-29T07:40:18.540Z,22.60
2022-07-29T07:42:46.199Z,22.70
2022-07-29T07:45:16.293Z,22.70
2022-07-29T07:47:44.118Z,22.80
2022-07-29T07:50:18.047Z,23.10
2022-07-29T07:52:53.563Z,23.10
2022-07-29T07:55:20.910Z,23.20
2022-07-29T07:57:48.470Z,23.30
2022-07-29T08:00:16.354Z,23.40
2022-07-29T08:02:46.393Z,23.60
2022-07-29T08:05:17.576Z,23.40
2022-07-29T08:07:48.411Z,23.50
2022-07-29T08:10:36.525Z,23.40
2022-07-29T08:13:07.684Z,23.30
2022-07-29T08:15:35.136Z,23.30
2022-07-29T08:18:08.220Z,23.50
2022-07-29T08:20:36.792Z,23.70
2022-07-29T08:23:05.278Z,23.90
2022-07-29T08:25:33.263Z,23.90
2022-07-29T08:28:05.070Z,23.90
2022-07-29T08:30:33.242Z,24.30
2022-07-29T08:33:00.628Z,24.50
2022-07-29T08:35:32.098Z,24.70
2022-07-29T08:38:02.293Z,24.80
2022-07-29T08:40:31.833Z,24.80
2022-07-29T08:43:06.451Z,24.90
2022-07-29T08:45:52.533Z,25.00
2022-07-29T08:48:23.751Z,25.00
2022-07-29T08:50:56.320Z,24.80
2022-07-29T08:53:24.801Z,24.70
2022-07-29T08:55:52.129Z,24.80
2022-07-29T08:58:23.006Z,24.90
2022-07-29T09:00:53.386Z,24.80
2022-07-29T09:03:24.785Z,24.80
2022-07-29T09:05:52.143Z,24.90
2022-07-29T09:08:19.548Z,25.00
2022-07-29T09:10:47.053Z,25.20
2022-07-29T09:13:14.268Z,25.30
2022-07-29T09:15:41.556Z,25.50
2022-07-29T09:18:20.501Z,25.80
2022-07-29T09:21:14.808Z,25.50
2022-07-29T09:23:43.748Z,25.50
2022-07-29T09:26:10.984Z,25.30
2022-07-29T09:28:42.559Z,25.40
2022-07-29T09:31:09.872Z,25.40
2022-07-29T09:33:40.103Z,25.10
2022-07-29T09:36:08.391Z,25.10
2022-07-29T09:38:40.475Z,25.10
2022-07-29T09:41:09.733Z,24.90
2022-07-29T09:43:36.960Z,24.70
2022-07-29T09:46:13.949Z,24.50
2022-07-29T09:48:41.294Z,24.40
2022-07-29T09:51:25.483Z,24.40
2022-07-29T09:53:57.159Z,24.50
2022-07-29T09:56:44.671Z,24.60
2022-07-29T09:59:13.044Z,24.40
2022-07-29T10:01:40.444Z,24.30
2022-07-29T10:04:07.735Z,24.40
2022-07-29T10:06:34.970Z,24.40
2022-07-29T10:09:10.199Z,24.40
2022-07-29T10:11:56.780Z,24.40
2022-07-29T10:14:24.140Z,24.60
2022-07-29T10:16:51.357Z,24.60
2022-07-29T10:19:18.640Z,24.70
2022-07-29T10:21:46.024Z,25.00
2022-07-29T10:24:14.965Z,25.10
2022-07-29T10:26:43.235Z,25.20
2022-07-29T10:29:10.558Z,25.30
2022-07-29T10:32:05.767Z,25.20
2022-07-29T10:34:49.664Z,25.20
2022-07-29T10:37:46.522Z,25.10
2022-07-29T10:40:41.605Z,24.90
2022-07-29T10:43:38.767Z,24.90
2022-07-29T10:46:07.454Z,25.00
2022-07-29T10:48:35.877Z,25.20
2022-07-29T10:51:07.773Z,25.20
2022-07-29T10:53:55.403Z,25.50
2022-07-29T10:56:30.253Z,25.40
2022-07-29T10:59:21.542Z,25.50
2022-07-29T11:01:53.567Z,25.70
2022-07-29T11:04:47.102Z,25.80
2022-07-29T11:07:17.343Z,26.00
2022-07-29T11:09:46.416Z,26.10
2022-07-29T11:12:39.312Z,26.10
2022-07-29T11:15:18.063Z,26.10
2022-07-29T11:18:01.450Z,26.10
2022-07-29T11:20:48.232Z,26.20
2022-07-29T11:23:33.443Z,26.30
2022-07-29T11:26:14.468Z,26.40
2022-07-29T11:28:55.981Z,26.50
2022-07-29T11:31:39.263Z,26.60
2022-07-29T11:34:28.034Z,26.50
2022-07-29T11:37:15.543Z,26.80
2022-07-29T11:39:54.205Z,26.80
2022-07-29T11:42:32.068Z,26.60
2022-07-29T11:45:41.886Z,26.70
2022-07-29T11:48:27.879Z,26.50
2022-07-29T11:50:48.288Z,26.60
2022-07-29T11:53:16.114Z,26.40
2022-07-29T11:55:50.853Z,26.40
2022-07-29T11:58:26.193Z,26.50
2022-07-29T12:00:55.210Z,26.70
2022-07-29T12:03:34.797Z,26.80
2022-07-29T12:06:12.226Z,26.80
2022-07-29T12:08:44.299Z,27.00
2022-07-29T12:11:21.245Z,26.80
2022-07-29T12:13:50.279Z,26.80
2022-07-29T12:16:28.164Z,26.80
2022-07-29T12:19:00.703Z,26.80
2022-07-29T12:21:53.661Z,26.80
2022-07-29T12:24:26.999Z,26.70
2022-07-29T12:26:56.075Z,26.60
2022-07-29T12:29:34.504Z,26.60
2022-07-29T12:32:03.438Z,26.40
2022-07-29T12:34:31.029Z,26.50
2022-07-29T12:36:58.344Z,26.60
2022-07-29T12:39:28.647Z,26.80
2022-07-29T12:42:04.544Z,27.10
2022-07-29T12:44:48.884Z,27.00
2022-07-29T12:47:16.824Z,26.90
2022-07-29T12:49:44.037Z,26.80
2022-07-29T12:52:31.494Z,26.70
2022-07-29T12:54:58.922Z,26.50
2022-07-29T12:57:26.743Z,26.40
2022-07-29T13:00:11.875Z,26.40
2022-07-29T13:02:39.464Z,26.30
2022-07-29T13:05:07.392Z,26.00
2022-07-29T13:07:55.627Z,25.90
2022-07-29T13:10:24.910Z,25.70
2022-07-29T13:13:12.059Z,25.60
2022-07-29T13:15:40.543Z,25.60
2022-07-29T13:18:28.112Z,25.60
2022-07-29T13:20:55.837Z,25.60
2022-07-29T13:23:23.322Z,25.60
2022-07-29T13:25:50.640Z,25.60
2022-07-29T13:28:18.379Z,25.30
2022-07-29T13:30:45.696Z,25.10
2022-07-29T13:33:13.001Z,25.10
2022-07-29T13:35:40.389Z,25.00
2022-07-29T13:38:08.252Z,25.00
2022-07-29T13:40:36.283Z,24.90
2022-07-29T13:43:03.543Z,24.90
2022-07-29T13:45:31.287Z,24.90
2022-07-29T13:47:58.579Z,24.90
2022-07-29T13:50:25.835Z,24.90
2022-07-29T13:52:53.607Z,24.90
2022-07-29T13:55:20.859Z,24.80
2022-07-29T13:57:48.535Z,24.70
2022-07-29T14:00:16.989Z,24.80
2022-07-29T14:02:44.196Z,24.90
2022-07-29T14:05:11.598Z,24.90
2022-07-29T14:07:42.041Z,24.90
2022-07-29T14:10:09.782Z,24.90
2022-07-29T14:12:37.249Z,24.90
2022-07-29T14:15:04.964Z,24.80
2022-07-29T14:17:32.199Z,24.70
2022-07-29T14:19:59.445Z,24.80
2022-07-29T14:22:26.793Z,24.80
2022-07-29T14:24:54.038Z,24.80
2022-07-29T14:27:37.630Z,24.80
2022-07-29T14:30:07.037Z,24.80
2022-07-29T14:32:34.348Z,24.90
2022-07-29T14:35:01.576Z,24.90
2022-07-29T14:37:28.853Z,25.00
2022-07-29T14:40:08.622Z,25.10
2022-07-29T14:42:37.065Z,25.20
2022-07-29T14:45:06.505Z,25.20
2022-07-29T14:47:33.791Z,25.20
2022-07-29T14:50:01.066Z,25.20
2022-07-29T14:52:28.286Z,25.10
2022-07-29T14:54:55.515Z,24.90
2022-07-29T14:57:22.741Z,24.80
2022-07-29T14:59:49.988Z,24.80
2022-07-29T15:02:17.281Z,24.70
2022-07-29T15:04:46.664Z,24.70
2022-07-29T15:07:13.959Z,24.60
2022-07-29T15:09:49.921Z,24.60
2022-07-29T15:12:17.520Z,24.60
2022-07-29T15:14:44.765Z,24.50
2022-07-29T15:17:12.049Z,24.50
2022-07-29T15:19:39.768Z,24.40
2022-07-29T15:22:12.345Z,24.40
2022-07-29T15:24:39.724Z,24.30
2022-07-29T15:27:07.007Z,24.30
2022-07-29T15:29:34.233Z,24.20
2022-07-29T15:32:02.200Z,24.20
2022-07-29T15:34:29.696Z,24.20
2022-07-29T15:36:57.680Z,24.10
2022-07-29T15:39:24.927Z,23.90
2022-07-29T15:41:52.210Z,23.80
2022-07-29T15:44:19.869Z,23.80
2022-07-29T15:47:03.902Z,23.70
2022-07-29T15:49:46.557Z,23.70
2022-07-29T15:52:25.991Z,23.60
2022-07-29T15:54:57.524Z,23.60
2022-07-29T15:57:24.919Z,23.60
2022-07-29T15:59:52.243Z,23.60
2022-07-29T16:02:19.612Z,23.50
2022-07-29T16:04:47.188Z,23.50
2022-07-29T16:07:14.912Z,23.40
2022-07-29T16:09:42.750Z,23.40
2022-07-29T16:12:15.078Z,23.40
2022-07-29T16:14:45.906Z,23.40
2022-07-29T16:17:14.953Z,23.40
2022-07-29T16:19:43.365Z,23.30
2022-07-29T16:22:10.926Z,23.20
2022-07-29T16:24:38.875Z,23.20
2022-07-29T16:27:06.181Z,23.20
2022-07-29T16:29:33.523Z,23.20
2022-07-29T16:32:01.821Z,23.20
2022-07-29T16:34:29.585Z,23.20
2022-07-29T16:36:56.825Z,23.10
2022-07-29T16:39:24.051Z,23.10
2022-07-29T16:41:51.312Z,23.00
2022-07-29T16:44:18.548Z,23.00
2022-07-29T16:46:45.804Z,22.90
2022-07-29T16:49:18.357Z,22.90
2022-07-29T16:51:47.810Z,22.80
2022-07-29T16:54:15.347Z,22.80
2022-07-29T16:56:42.564Z,22.70
2022-07-29T16:59:09.796Z,22.70
2022-07-29T17:01:37.095Z,22.60
2022-07-29T17:04:07.176Z,22.50
2022-07-29T17:06:37.035Z,22.40
2022-07-29T17:09:05.045Z,22.30
2022-07-29T17:11:52.580Z,22.20
2022-07-29T17:14:23.431Z,22.20
2022-07-29T17:16:55.265Z,22.10
2022-07-29T17:19:35.125Z,22.00
2022-07-29T17:22:19.386Z,22.00
2022-07-29T17:24:47.565Z,21.90
2022-07-29T17:27:15.315Z,21.80
2022-07-29T17:29:42.870Z,21.80
2022-07-29T17:32:10.250Z,21.70
2022-07-29T17:34:38.305Z,21.70
2022-07-29T17:37:06.107Z,21.40
2022-07-29T17:39:35.255Z,21.40
2022-07-29T17:42:03.586Z,21.10
2022-07-29T17:44:30.826Z,20.90
2022-07-29T17:47:00.389Z,20.50
2022-07-29T17:49:28.158Z,20.50
2022-07-29T17:51:59.012Z,20.20
2022-07-29T17:54:28.184Z,20.00
2022-07-29T17:56:55.703Z,19.70
2022-07-29T17:59:23.042Z,19.40
2022-07-29T18:01:50.387Z,19.20
2022-07-29T18:04:20.899Z,19.20
2022-07-29T18:06:48.157Z,19.40
2022-07-29T18:09:15.460Z,19.20
2022-07-29T18:11:44.450Z,19.20
2022-07-29T18:14:13.431Z,19.10
2022-07-29T18:16:40.982Z,19.00
2022-07-29T18:19:08.698Z,18.90
2022-07-29T18:21:51.262Z,18.90
2022-07-29T18:24:25.191Z,18.80
2022-07-29T18:26:52.558Z,18.80
2022-07-29T18:29:19.825Z,18.60
2022-07-29T18:31:47.110Z,18.60
2022-07-29T18:34:14.407Z,18.60
2022-07-29T18:36:41.655Z,18.60
2022-07-29T18:39:08.875Z,18.60
2022-07-29T18:41:46.135Z,18.50
2022-07-29T18:44:22.021Z,18.50
2022-07-29T18:46:51.227Z,18.40
2022-07-29T18:49:18.805Z,18.40
2022-07-29T18:51:46.169Z,18.40
2022-07-29T18:54:13.434Z,18.30
2022-07-29T18:56:40.731Z,18.20
2022-07-29T18:59:08.181Z,18.10
2022-07-29T19:01:35.519Z,18.00
2022-07-29T19:04:03.037Z,17.90
2022-07-29T19:06:30.284Z,17.90
2022-07-29T19:08:57.544Z,17.90
2022-07-29T19:11:24.837Z,17.70
2022-07-29T19:13:52.085Z,17.60
2022-07-29T19:16:19.419Z,17.50
2022-07-29T19:18:47.358Z,17.50
2022-07-29T19:21:14.691Z,17.50
2022-07-29T19:24:05.771Z,17.50
2022-07-29T19:26:29.983Z,17.40
2022-07-29T19:28:57.318Z,17.40
2022-07-29T19:31:24.685Z,17.40
2022-07-29T19:33:52.009Z,17.30
2022-07-29T19:36:19.300Z,17.40
2022-07-29T19:38:46.532Z,17.30
2022-07-29T19:41:13.831Z,17.30
2022-07-29T19:43:52.093Z,17.30
2022-07-29T19:46:23.538Z,17.30
2022-07-29T19:48:51.219Z,17.30
2022-07-29T19:51:18.578Z,17.30
2022-07-29T19:53:45.833Z,17.20
2022-07-29T19:56:13.052Z,17.20
2022-07-29T19:58:40.795Z,17.20
2022-07-29T20:01:10.124Z,17.20
2022-07-29T20:03:40.042Z,17.20
2022-07-29T20:06:07.704Z,17.10
2022-07-29T20:08:34.976Z,17.00
2022-07-29T20:11:02.680Z,17.00
2022-07-29T20:13:31.677Z,17.00
2022-07-29T20:15:59.753Z,17.00
2022-07-29T20:18:27.300Z,16.90
2022-07-29T20:20:56.568Z,16.90
2022-07-29T20:23:23.856Z,16.90
2022-07-29T20:25:51.156Z,16.90
2022-07-29T20:28:18.372Z,16.90
2022-07-29T20:30:45.754Z,16.90
2022-07-29T20:33:14.895Z,16.90
2022-07-29T20:35:43.390Z,16.90
2022-07-29T20:38:13.865Z,16.90
2022-07-29T20:40:44.389Z,16.90
2022-07-29T20:43:11.635Z,16.90
2022-07-29T20:45:39.483Z,16.90
2022-07-29T20:48:06.950Z,16.80
2022-07-29T20:50:35.868Z,16.90
2022-07-29T20:53:03.393Z,16.90
2022-07-29T20:55:31.941Z,16.90
2022-07-29T20:57:59.193Z,16.80
2022-07-29T21:00:26.442Z,16.80
2022-07-29T21:02:53.798Z,16.90
2022-07-29T21:05:21.061Z,16.80
2022-07-29T21:07:48.321Z,16.80
2022-07-29T21:10:18.128Z,16.80
2022-07-29T21:12:48.424Z,16.90
2022-07-29T21:15:16.195Z,16.80
2022-07-29T21:17:47.076Z,16.80
2022-07-29T21:20:18.335Z,16.90
2022-07-29T21:22:45.625Z,16.80
2022-07-29T21:25:12.961Z,16.80
2022-07-29T21:27:58.637Z,16.80
2022-07-29T21:30:25.873Z,16.80
2022-07-29T21:32:53.133Z,16.80
2022-07-29T21:35:35.949Z,16.80
2022-07-29T21:38:07.596Z,16.70
2022-07-29T21:40:34.839Z,16.70
2022-07-29T21:43:02.079Z,16.80
2022-07-29T21:45:29.347Z,16.80
2022-07-29T21:47:56.589Z,16.80
2022-07-29T21:50:23.884Z,16.90
2022-07-29T21:52:51.148Z,16.90
2022-07-29T21:55:18.618Z,17.00
2022-07-29T21:57:46.646Z,17.00
2022-07-29T22:00:17.049Z,17.00
2022-07-29T22:02:44.484Z,17.00
2022-07-29T22:05:12.300Z,17.00
2022-07-29T22:07:54.560Z,17.00
2022-07-29T22:10:28.363Z,17.00
2022-07-29T22:12:57.108Z,17.10
2022-07-29T22:15:24.614Z,17.20
2022-07-29T22:17:51.875Z,17.20
2022-07-29T22:20:19.314Z,17.30
2022-07-29T22:22:46.923Z,17.20
2022-07-29T22:25:14.201Z,17.20
2022-07-29T22:27:41.445Z,17.10
2022-07-29T22:30:09.212Z,17.00
2022-07-29T22:32:36.491Z,17.10
2022-07-29T22:35:03.933Z,17.00
2022-07-29T22:37:31.228Z,17.00
2022-07-29T22:39:58.479Z,17.00
2022-07-29T22:42:25.695Z,16.90
2022-07-29T22:44:52.931Z,16.90
2022-07-29T22:47:46.638Z,16.90
2022-07-29T22:50:07.752Z,17.00
2022-07-29T22:52:34.967Z,17.00
2022-07-29T22:55:03.170Z,17.10
2022-07-29T22:57:30.463Z,17.00
2022-07-29T22:59:57.721Z,16.90
2022-07-29T23:02:24.934Z,16.90
2022-07-29T23:04:52.145Z,16.90
2022-07-29T23:07:19.374Z,16.90
2022-07-29T23:09:46.799Z,16.90
2022-07-29T23:12:14.043Z,16.90
2022-07-29T23:14:41.307Z,17.00
2022-07-29T23:17:08.555Z,17.00
2022-07-29T23:19:35.847Z,17.00
2022-07-29T23:22:03.064Z,16.90
2022-07-29T23:24:30.306Z,16.90
2022-07-29T23:26:57.886Z,17.00
2022-07-29T23:29:25.284Z,17.00
2022-07-29T23:31:52.520Z,17.00
2022-07-29T23:34:19.776Z,17.00
2022-07-29T23:36:47.011Z,17.00
2022-07-29T23:39:14.579Z,17.10
2022-07-29T23:41:42.012Z,17.20
2022-07-29T23:44:09.474Z,17.20
2022-07-29T23:46:36.814Z,17.30
2022-07-29T23:49:04.095Z,17.20
2022-07-29T23:51:32.916Z,17.10
2022-07-29T23:54:00.183Z,17.00
2022-07-29T23:56:27.404Z,17.00
2022-07-29T23:58:54.638Z,17.00
